sensor_id;sensor_type;location;lat;lon;timestamp;P1;durP1;ratioP1;P2;durP2;ratioP2
9745;SDS011;4912;50.836;12.958;2023-08-17T00:04:34;14.30;;;8.85;;
9745;SDS011;4912;50.836;12.958;2023-08-17T00:07:05;12.73;;;9.88;;
9745;SDS011;4912;50.836;12.958;2023-08-17T00:09:35;14.73;;;10.80;;
9745;SDS011;4912;50.836;12.958;2023-08-17T00:14:37;12.18;;;8.50;;
9745;SDS011;4912;50.836;12.958;2023-08-17T00:19:40;14.43;;;9.48;;
9745;SDS011;4912;50.836;12.958;2023-08-17T00:27:12;12.02;;;8.77;;
9745;SDS011;4912;50.836;12.958;2023-08-17T00:29:42;11.07;;;9.23;;
9745;SDS011;4912;50.836;12.958;2023-08-17T00:34:46;11.85;;;8.50;;
9745;SDS011;4912;50.836;12.958;2023-08-17T00:37:17;9.73;;;8.15;;
9745;SDS011;4912;50.836;12.958;2023-08-17T00:39:48;10.00;;;7.90;;
9745;SDS011;4912;50.836;12.958;2023-08-17T00:44:51;13.23;;;8.60;;
9745;SDS011;4912;50.836;12.958;2023-08-17T00:49:56;11.10;;;7.78;;
9745;SDS011;4912;50.836;12.958;2023-08-17T00:52:28;11.32;;;8.32;;
9745;SDS011;4912;50.836;12.958;2023-08-17T00:55:00;12.50;;;8.45;;
9745;SDS011;4912;50.836;12.958;2023-08-17T00:57:33;12.38;;;8.75;;
9745;SDS011;4912;50.836;12.958;2023-08-17T01:00:06;11.48;;;8.80;;
9745;SDS011;4912;50.836;12.958;2023-08-17T01:02:41;8.82;;;7.70;;
9745;SDS011;4912;50.836;12.958;2023-08-17T01:05:15;11.65;;;8.10;;
9745;SDS011;4912;50.836;12.958;2023-08-17T01:07:46;11.73;;;8.32;;
9745;SDS011;4912;50.836;12.958;2023-08-17T01:10:17;14.90;;;8.40;;
9745;SDS011;4912;50.836;12.958;2023-08-17T01:12:48;12.50;;;8.55;;
9745;SDS011;4912;50.836;12.958;2023-08-17T01:15:32;12.23;;;8.60;;
9745;SDS011;4912;50.836;12.958;2023-08-17T01:18:11;17.80;;;9.48;;
9745;SDS011;4912;50.836;12.958;2023-08-17T01:20:53;10.75;;;8.25;;
9745;SDS011;4912;50.836;12.958;2023-08-17T01:23:27;12.93;;;8.32;;
9745;SDS011;4912;50.836;12.958;2023-08-17T01:25:57;12.02;;;7.65;;
9745;SDS011;4912;50.836;12.958;2023-08-17T01:28:28;15.48;;;8.50;;
9745;SDS011;4912;50.836;12.958;2023-08-17T01:31:00;11.82;;;8.82;;
9745;SDS011;4912;50.836;12.958;2023-08-17T01:33:40;13.07;;;8.02;;
9745;SDS011;4912;50.836;12.958;2023-08-17T01:36:20;11.27;;;8.20;;
9745;SDS011;4912;50.836;12.958;2023-08-17T01:38:57;10.68;;;8.25;;
9745;SDS011;4912;50.836;12.958;2023-08-17T01:41:30;10.77;;;8.43;;
9745;SDS011;4912;50.836;12.958;2023-08-17T01:44:03;12.10;;;8.07;;
9745;SDS011;4912;50.836;12.958;2023-08-17T01:46:35;15.48;;;9.15;;
9745;SDS011;4912;50.836;12.958;2023-08-17T01:49:06;12.30;;;9.05;;
9745;SDS011;4912;50.836;12.958;2023-08-17T01:51:40;13.25;;;9.07;;
9745;SDS011;4912;50.836;12.958;2023-08-17T01:54:13;12.32;;;9.32;;
9745;SDS011;4912;50.836;12.958;2023-08-17T01:56:44;10.95;;;8.40;;
9745;SDS011;4912;50.836;12.958;2023-08-17T02:01:45;14.05;;;8.80;;
9745;SDS011;4912;50.836;12.958;2023-08-17T02:04:15;12.02;;;8.38;;
9745;SDS011;4912;50.836;12.958;2023-08-17T02:06:46;9.55;;;7.93;;
9745;SDS011;4912;50.836;12.958;2023-08-17T02:09:20;10.32;;;8.07;;
9745;SDS011;4912;50.836;12.958;2023-08-17T02:11:52;10.52;;;8.63;;
9745;SDS011;4912;50.836;12.958;2023-08-17T02:14:23;11.23;;;8.60;;
9745;SDS011;4912;50.836;12.958;2023-08-17T02:19:24;10.73;;;7.65;;
9745;SDS011;4912;50.836;12.958;2023-08-17T02:24:27;9.65;;;8.05;;
9745;SDS011;4912;50.836;12.958;2023-08-17T02:26:58;10.85;;;9.20;;
9745;SDS011;4912;50.836;12.958;2023-08-17T02:31:59;12.27;;;8.63;;
9745;SDS011;4912;50.836;12.958;2023-08-17T02:34:30;11.60;;;8.80;;
9745;SDS011;4912;50.836;12.958;2023-08-17T02:37:00;12.27;;;8.93;;
9745;SDS011;4912;50.836;12.958;2023-08-17T02:42:04;14.70;;;8.75;;
9745;SDS011;4912;50.836;12.958;2023-08-17T02:44:35;10.88;;;7.85;;
9745;SDS011;4912;50.836;12.958;2023-08-17T02:49:36;10.63;;;8.70;;
9745;SDS011;4912;50.836;12.958;2023-08-17T02:57:10;11.48;;;7.80;;
9745;SDS011;4912;50.836;12.958;2023-08-17T02:59:42;9.93;;;8.40;;
9745;SDS011;4912;50.836;12.958;2023-08-17T03:04:43;10.88;;;8.63;;
9745;SDS011;4912;50.836;12.958;2023-08-17T03:09:47;10.85;;;8.07;;
9745;SDS011;4912;50.836;12.958;2023-08-17T03:12:17;11.25;;;8.63;;
9745;SDS011;4912;50.836;12.958;2023-08-17T03:14:49;9.73;;;8.55;;
9745;SDS011;4912;50.836;12.958;2023-08-17T03:17:20;12.18;;;8.88;;
9745;SDS011;4912;50.836;12.958;2023-08-17T03:19:51;12.75;;;10.18;;
9745;SDS011;4912;50.836;12.958;2023-08-17T03:22:26;11.93;;;10.52;;
9745;SDS011;4912;50.836;12.958;2023-08-17T03:25:02;14.73;;;10.93;;
9745;SDS011;4912;50.836;12.958;2023-08-17T03:27:33;13.63;;;10.40;;
9745;SDS011;4912;50.836;12.958;2023-08-17T03:30:05;13.30;;;11.90;;
9745;SDS011;4912;50.836;12.958;2023-08-17T03:32:37;14.97;;;11.27;;
9745;SDS011;4912;50.836;12.958;2023-08-17T03:35:08;15.35;;;10.48;;
9745;SDS011;4912;50.836;12.958;2023-08-17T03:37:40;13.68;;;11.38;;
9745;SDS011;4912;50.836;12.958;2023-08-17T03:40:15;17.27;;;12.45;;
9745;SDS011;4912;50.836;12.958;2023-08-17T03:42:46;14.75;;;12.30;;
9745;SDS011;4912;50.836;12.958;2023-08-17T03:45:17;17.80;;;11.93;;
9745;SDS011;4912;50.836;12.958;2023-08-17T03:47:50;14.82;;;12.43;;
9745;SDS011;4912;50.836;12.958;2023-08-17T03:50:21;18.20;;;13.88;;
9745;SDS011;4912;50.836;12.958;2023-08-17T03:55:24;16.13;;;13.35;;
9745;SDS011;4912;50.836;12.958;2023-08-17T03:57:55;19.00;;;14.18;;
9745;SDS011;4912;50.836;12.958;2023-08-17T04:00:25;19.08;;;14.27;;
9745;SDS011;4912;50.836;12.958;2023-08-17T04:02:58;16.10;;;13.90;;
9745;SDS011;4912;50.836;12.958;2023-08-17T04:05:29;16.88;;;13.55;;
9745;SDS011;4912;50.836;12.958;2023-08-17T04:08:00;18.70;;;14.02;;
9745;SDS011;4912;50.836;12.958;2023-08-17T04:10:33;19.50;;;14.05;;
9745;SDS011;4912;50.836;12.958;2023-08-17T04:13:04;17.70;;;14.00;;
9745;SDS011;4912;50.836;12.958;2023-08-17T04:18:05;22.58;;;14.93;;
9745;SDS011;4912;50.836;12.958;2023-08-17T04:20:36;19.52;;;14.00;;
9745;SDS011;4912;50.836;12.958;2023-08-17T04:23:07;17.50;;;13.38;;
9745;SDS011;4912;50.836;12.958;2023-08-17T04:25:41;16.83;;;12.63;;
9745;SDS011;4912;50.836;12.958;2023-08-17T04:28:13;13.98;;;11.38;;
9745;SDS011;4912;50.836;12.958;2023-08-17T04:30:44;14.00;;;11.07;;
9745;SDS011;4912;50.836;12.958;2023-08-17T04:35:46;15.43;;;10.32;;
9745;SDS011;4912;50.836;12.958;2023-08-17T04:38:17;14.30;;;10.40;;
9745;SDS011;4912;50.836;12.958;2023-08-17T04:40:50;12.73;;;9.90;;
9745;SDS011;4912;50.836;12.958;2023-08-17T04:43:21;11.80;;;8.13;;
9745;SDS011;4912;50.836;12.958;2023-08-17T04:45:52;15.52;;;9.90;;
9745;SDS011;4912;50.836;12.958;2023-08-17T04:48:23;11.65;;;9.35;;
9745;SDS011;4912;50.836;12.958;2023-08-17T04:53:24;39.17;;;30.73;;
9745;SDS011;4912;50.836;12.958;2023-08-17T04:55:58;12.15;;;9.50;;
9745;SDS011;4912;50.836;12.958;2023-08-17T04:58:30;10.70;;;8.65;;
9745;SDS011;4912;50.836;12.958;2023-08-17T05:01:01;9.30;;;7.55;;
9745;SDS011;4912;50.836;12.958;2023-08-17T05:03:32;16.25;;;9.32;;
9745;SDS011;4912;50.836;12.958;2023-08-17T05:06:03;9.40;;;7.15;;
9745;SDS011;4912;50.836;12.958;2023-08-17T05:11:07;9.13;;;6.75;;
9745;SDS011;4912;50.836;12.958;2023-08-17T05:13:38;11.10;;;7.10;;
9745;SDS011;4912;50.836;12.958;2023-08-17T05:16:09;12.15;;;6.35;;
9745;SDS011;4912;50.836;12.958;2023-08-17T05:18:39;10.98;;;6.45;;
9745;SDS011;4912;50.836;12.958;2023-08-17T05:21:13;8.02;;;5.35;;
9745;SDS011;4912;50.836;12.958;2023-08-17T05:23:44;7.95;;;4.75;;
9745;SDS011;4912;50.836;12.958;2023-08-17T05:28:47;6.95;;;4.65;;
9745;SDS011;4912;50.836;12.958;2023-08-17T05:33:50;6.05;;;3.35;;
9745;SDS011;4912;50.836;12.958;2023-08-17T05:36:23;5.90;;;3.30;;
9745;SDS011;4912;50.836;12.958;2023-08-17T05:38:54;4.38;;;3.25;;
9745;SDS011;4912;50.836;12.958;2023-08-17T05:41:28;4.18;;;3.00;;
9745;SDS011;4912;50.836;12.958;2023-08-17T05:43:59;7.70;;;3.25;;
9745;SDS011;4912;50.836;12.958;2023-08-17T05:49:00;4.85;;;2.67;;
9745;SDS011;4912;50.836;12.958;2023-08-17T05:51:31;6.68;;;3.60;;
9745;SDS011;4912;50.836;12.958;2023-08-17T05:54:02;4.55;;;3.08;;
9745;SDS011;4912;50.836;12.958;2023-08-17T05:56:36;5.03;;;3.28;;
9745;SDS011;4912;50.836;12.958;2023-08-17T05:59:11;12.75;;;7.57;;
9745;SDS011;4912;50.836;12.958;2023-08-17T06:01:42;6.88;;;4.70;;
9745;SDS011;4912;50.836;12.958;2023-08-17T06:04:13;6.28;;;3.72;;
9745;SDS011;4912;50.836;12.958;2023-08-17T06:06:44;6.22;;;3.70;;
9745;SDS011;4912;50.836;12.958;2023-08-17T06:09:14;5.88;;;4.30;;
9745;SDS011;4912;50.836;12.958;2023-08-17T06:14:18;7.25;;;3.88;;
9745;SDS011;4912;50.836;12.958;2023-08-17T06:16:49;7.07;;;4.18;;
9745;SDS011;4912;50.836;12.958;2023-08-17T06:19:20;6.00;;;4.03;;
9745;SDS011;4912;50.836;12.958;2023-08-17T06:21:50;7.68;;;4.40;;
9745;SDS011;4912;50.836;12.958;2023-08-17T06:24:21;9.02;;;4.32;;
9745;SDS011;4912;50.836;12.958;2023-08-17T06:26:55;6.22;;;4.40;;
9745;SDS011;4912;50.836;12.958;2023-08-17T06:29:25;6.55;;;4.13;;
9745;SDS011;4912;50.836;12.958;2023-08-17T06:34:26;22.20;;;15.43;;
9745;SDS011;4912;50.836;12.958;2023-08-17T06:36:57;10.27;;;7.57;;
9745;SDS011;4912;50.836;12.958;2023-08-17T06:39:29;12.68;;;9.48;;
9745;SDS011;4912;50.836;12.958;2023-08-17T06:42:02;11.93;;;6.22;;
9745;SDS011;4912;50.836;12.958;2023-08-17T06:44:33;7.70;;;5.57;;
9745;SDS011;4912;50.836;12.958;2023-08-17T06:47:04;9.85;;;5.55;;
9745;SDS011;4912;50.836;12.958;2023-08-17T06:49:35;8.98;;;6.63;;
9745;SDS011;4912;50.836;12.958;2023-08-17T06:52:05;10.63;;;6.60;;
9745;SDS011;4912;50.836;12.958;2023-08-17T06:54:36;10.00;;;6.90;;
9745;SDS011;4912;50.836;12.958;2023-08-17T06:57:09;12.15;;;7.43;;
9745;SDS011;4912;50.836;12.958;2023-08-17T06:59:40;10.05;;;7.68;;
9745;SDS011;4912;50.836;12.958;2023-08-17T07:02:12;10.93;;;8.20;;
9745;SDS011;4912;50.836;12.958;2023-08-17T07:04:43;16.73;;;9.43;;
9745;SDS011;4912;50.836;12.958;2023-08-17T07:07:14;9.48;;;8.20;;
9745;SDS011;4912;50.836;12.958;2023-08-17T07:09:44;11.68;;;8.45;;
9745;SDS011;4912;50.836;12.958;2023-08-17T07:12:18;14.38;;;8.68;;
9745;SDS011;4912;50.836;12.958;2023-08-17T07:14:49;12.82;;;9.18;;
9745;SDS011;4912;50.836;12.958;2023-08-17T07:17:19;12.35;;;9.32;;
9745;SDS011;4912;50.836;12.958;2023-08-17T07:19:50;11.88;;;9.45;;
9745;SDS011;4912;50.836;12.958;2023-08-17T07:22:41;14.00;;;10.18;;
9745;SDS011;4912;50.836;12.958;2023-08-17T07:25:12;14.77;;;10.32;;
9745;SDS011;4912;50.836;12.958;2023-08-17T07:27:45;13.00;;;10.98;;
9745;SDS011;4912;50.836;12.958;2023-08-17T07:30:16;15.65;;;11.45;;
9745;SDS011;4912;50.836;12.958;2023-08-17T07:32:46;13.85;;;10.25;;
9745;SDS011;4912;50.836;12.958;2023-08-17T07:35:17;16.38;;;12.13;;
9745;SDS011;4912;50.836;12.958;2023-08-17T07:37:47;14.75;;;11.52;;
9745;SDS011;4912;50.836;12.958;2023-08-17T07:40:34;13.73;;;10.65;;
9745;SDS011;4912;50.836;12.958;2023-08-17T07:43:07;14.23;;;11.30;;
9745;SDS011;4912;50.836;12.958;2023-08-17T07:45:38;12.95;;;11.05;;
9745;SDS011;4912;50.836;12.958;2023-08-17T07:48:08;15.90;;;10.73;;
9745;SDS011;4912;50.836;12.958;2023-08-17T07:50:39;13.07;;;10.32;;
9745;SDS011;4912;50.836;12.958;2023-08-17T07:53:10;15.23;;;11.48;;
9745;SDS011;4912;50.836;12.958;2023-08-17T07:55:40;13.80;;;10.77;;
9745;SDS011;4912;50.836;12.958;2023-08-17T07:58:13;17.95;;;12.00;;
9745;SDS011;4912;50.836;12.958;2023-08-17T08:00:44;20.23;;;13.32;;
9745;SDS011;4912;50.836;12.958;2023-08-17T08:03:15;18.23;;;12.52;;
9745;SDS011;4912;50.836;12.958;2023-08-17T08:05:45;53.70;;;40.30;;
9745;SDS011;4912;50.836;12.958;2023-08-17T08:08:16;34.08;;;26.05;;
9745;SDS011;4912;50.836;12.958;2023-08-17T08:10:47;18.75;;;14.23;;
9745;SDS011;4912;50.836;12.958;2023-08-17T08:13:20;27.77;;;14.02;;
9745;SDS011;4912;50.836;12.958;2023-08-17T08:15:51;15.02;;;12.27;;
9745;SDS011;4912;50.836;12.958;2023-08-17T08:18:21;13.23;;;11.15;;
9745;SDS011;4912;50.836;12.958;2023-08-17T08:20:52;12.80;;;10.93;;
9745;SDS011;4912;50.836;12.958;2023-08-17T08:23:22;11.50;;;10.30;;
9745;SDS011;4912;50.836;12.958;2023-08-17T08:25:53;14.30;;;10.20;;
9745;SDS011;4912;50.836;12.958;2023-08-17T08:28:27;12.60;;;10.48;;
9745;SDS011;4912;50.836;12.958;2023-08-17T08:31:01;14.10;;;10.30;;
9745;SDS011;4912;50.836;12.958;2023-08-17T08:33:32;14.60;;;9.85;;
9745;SDS011;4912;50.836;12.958;2023-08-17T08:36:03;13.60;;;10.60;;
9745;SDS011;4912;50.836;12.958;2023-08-17T08:38:34;14.52;;;10.38;;
9745;SDS011;4912;50.836;12.958;2023-08-17T08:41:05;11.10;;;9.73;;
9745;SDS011;4912;50.836;12.958;2023-08-17T08:43:41;10.93;;;9.80;;
9745;SDS011;4912;50.836;12.958;2023-08-17T08:46:13;13.40;;;10.18;;
9745;SDS011;4912;50.836;12.958;2023-08-17T08:48:47;10.93;;;9.82;;
9745;SDS011;4912;50.836;12.958;2023-08-17T08:51:21;12.88;;;11.50;;
9745;SDS011;4912;50.836;12.958;2023-08-17T08:54:00;18.23;;;16.13;;
9745;SDS011;4912;50.836;12.958;2023-08-17T08:56:35;15.38;;;13.77;;
9745;SDS011;4912;50.836;12.958;2023-08-17T08:59:16;10.83;;;9.73;;
9745;SDS011;4912;50.836;12.958;2023-08-17T09:01:50;9.52;;;8.52;;
9745;SDS011;4912;50.836;12.958;2023-08-17T09:04:21;9.85;;;8.85;;
9745;SDS011;4912;50.836;12.958;2023-08-17T09:06:52;9.40;;;8.35;;
9745;SDS011;4912;50.836;12.958;2023-08-17T09:09:23;9.52;;;8.27;;
9745;SDS011;4912;50.836;12.958;2023-08-17T09:11:56;9.77;;;8.18;;
9745;SDS011;4912;50.836;12.958;2023-08-17T09:14:29;9.25;;;8.35;;
9745;SDS011;4912;50.836;12.958;2023-08-17T09:16:59;10.15;;;8.30;;
9745;SDS011;4912;50.836;12.958;2023-08-17T09:19:31;11.00;;;8.60;;
9745;SDS011;4912;50.836;12.958;2023-08-17T09:22:02;9.60;;;8.55;;
9745;SDS011;4912;50.836;12.958;2023-08-17T09:24:36;9.63;;;8.10;;
9745;SDS011;4912;50.836;12.958;2023-08-17T09:27:06;9.63;;;8.63;;
9745;SDS011;4912;50.836;12.958;2023-08-17T09:29:45;12.95;;;9.80;;
9745;SDS011;4912;50.836;12.958;2023-08-17T09:32:16;11.75;;;9.45;;
9745;SDS011;4912;50.836;12.958;2023-08-17T09:34:46;9.80;;;8.80;;
9745;SDS011;4912;50.836;12.958;2023-08-17T09:37:19;12.07;;;9.45;;
9745;SDS011;4912;50.836;12.958;2023-08-17T09:39:49;9.50;;;8.50;;
9745;SDS011;4912;50.836;12.958;2023-08-17T09:42:20;9.82;;;8.82;;
9745;SDS011;4912;50.836;12.958;2023-08-17T09:44:55;10.73;;;9.63;;
9745;SDS011;4912;50.836;12.958;2023-08-17T09:47:29;11.13;;;9.15;;
9745;SDS011;4912;50.836;12.958;2023-08-17T09:50:00;11.02;;;8.93;;
9745;SDS011;4912;50.836;12.958;2023-08-17T09:52:31;9.95;;;8.82;;
9745;SDS011;4912;50.836;12.958;2023-08-17T09:55:01;9.93;;;8.93;;
9745;SDS011;4912;50.836;12.958;2023-08-17T09:57:34;10.10;;;8.75;;
9745;SDS011;4912;50.836;12.958;2023-08-17T10:00:09;10.93;;;9.57;;
9745;SDS011;4912;50.836;12.958;2023-08-17T10:02:41;11.63;;;10.18;;
9745;SDS011;4912;50.836;12.958;2023-08-17T10:05:14;11.57;;;9.85;;
9745;SDS011;4912;50.836;12.958;2023-08-17T10:07:51;11.93;;;9.38;;
9745;SDS011;4912;50.836;12.958;2023-08-17T10:10:25;10.68;;;9.45;;
9745;SDS011;4912;50.836;12.958;2023-08-17T10:12:59;10.95;;;8.63;;
9745;SDS011;4912;50.836;12.958;2023-08-17T10:15:44;9.73;;;8.80;;
9745;SDS011;4912;50.836;12.958;2023-08-17T10:18:34;10.90;;;8.88;;
9745;SDS011;4912;50.836;12.958;2023-08-17T10:21:10;10.55;;;9.23;;
9745;SDS011;4912;50.836;12.958;2023-08-17T10:23:47;10.73;;;9.35;;
9745;SDS011;4912;50.836;12.958;2023-08-17T10:26:20;10.57;;;9.48;;
9745;SDS011;4912;50.836;12.958;2023-08-17T10:28:52;10.57;;;9.50;;
9745;SDS011;4912;50.836;12.958;2023-08-17T10:31:33;10.70;;;9.02;;
9745;SDS011;4912;50.836;12.958;2023-08-17T10:34:04;10.60;;;9.50;;
9745;SDS011;4912;50.836;12.958;2023-08-17T10:36:37;10.95;;;8.77;;
9745;SDS011;4912;50.836;12.958;2023-08-17T10:39:19;11.55;;;10.30;;
9745;SDS011;4912;50.836;12.958;2023-08-17T10:41:55;11.82;;;9.82;;
9745;SDS011;4912;50.836;12.958;2023-08-17T10:44:40;10.68;;;9.30;;
9745;SDS011;4912;50.836;12.958;2023-08-17T10:47:26;10.73;;;8.88;;
9745;SDS011;4912;50.836;12.958;2023-08-17T10:50:03;11.88;;;9.38;;
9745;SDS011;4912;50.836;12.958;2023-08-17T10:52:36;10.02;;;8.82;;
9745;SDS011;4912;50.836;12.958;2023-08-17T10:55:08;11.32;;;9.00;;
9745;SDS011;4912;50.836;12.958;2023-08-17T10:57:39;10.10;;;9.10;;
9745;SDS011;4912;50.836;12.958;2023-08-17T11:00:15;13.68;;;10.57;;
9745;SDS011;4912;50.836;12.958;2023-08-17T11:02:57;11.55;;;9.70;;
9745;SDS011;4912;50.836;12.958;2023-08-17T11:05:40;10.93;;;9.57;;
9745;SDS011;4912;50.836;12.958;2023-08-17T11:08:19;12.80;;;9.20;;
9745;SDS011;4912;50.836;12.958;2023-08-17T11:10:58;10.00;;;8.80;;
9745;SDS011;4912;50.836;12.958;2023-08-17T11:13:32;9.10;;;8.20;;
9745;SDS011;4912;50.836;12.958;2023-08-17T11:16:05;10.88;;;9.00;;
9745;SDS011;4912;50.836;12.958;2023-08-17T11:18:41;9.23;;;8.32;;
9745;SDS011;4912;50.836;12.958;2023-08-17T11:21:13;11.45;;;8.32;;
9745;SDS011;4912;50.836;12.958;2023-08-17T11:23:46;9.70;;;8.68;;
9745;SDS011;4912;50.836;12.958;2023-08-17T11:26:17;12.85;;;8.63;;
9745;SDS011;4912;50.836;12.958;2023-08-17T11:28:49;10.15;;;8.10;;
9745;SDS011;4912;50.836;12.958;2023-08-17T11:31:20;9.80;;;8.73;;
9745;SDS011;4912;50.836;12.958;2023-08-17T11:33:53;9.15;;;8.15;;
9745;SDS011;4912;50.836;12.958;2023-08-17T11:36:23;9.48;;;8.48;;
9745;SDS011;4912;50.836;12.958;2023-08-17T11:38:55;10.75;;;8.30;;
9745;SDS011;4912;50.836;12.958;2023-08-17T11:41:25;9.77;;;8.23;;
9745;SDS011;4912;50.836;12.958;2023-08-17T11:43:56;9.70;;;8.50;;
9745;SDS011;4912;50.836;12.958;2023-08-17T11:46:27;9.07;;;7.95;;
9745;SDS011;4912;50.836;12.958;2023-08-17T11:49:01;9.43;;;8.27;;
9745;SDS011;4912;50.836;12.958;2023-08-17T11:51:32;9.95;;;8.20;;
9745;SDS011;4912;50.836;12.958;2023-08-17T11:54:08;9.60;;;8.65;;
9745;SDS011;4912;50.836;12.958;2023-08-17T11:56:38;9.23;;;8.32;;
9745;SDS011;4912;50.836;12.958;2023-08-17T11:59:09;10.05;;;8.15;;
9745;SDS011;4912;50.836;12.958;2023-08-17T12:01:41;9.25;;;8.30;;
9745;SDS011;4912;50.836;12.958;2023-08-17T12:04:14;11.90;;;7.88;;
9745;SDS011;4912;50.836;12.958;2023-08-17T12:06:45;10.25;;;7.97;;
9745;SDS011;4912;50.836;12.958;2023-08-17T12:09:17;9.88;;;8.10;;
9745;SDS011;4912;50.836;12.958;2023-08-17T12:11:48;8.35;;;7.55;;
9745;SDS011;4912;50.836;12.958;2023-08-17T12:14:27;9.13;;;8.23;;
9745;SDS011;4912;50.836;12.958;2023-08-17T12:16:58;9.40;;;8.48;;
9745;SDS011;4912;50.836;12.958;2023-08-17T12:19:31;9.02;;;7.97;;
9745;SDS011;4912;50.836;12.958;2023-08-17T12:22:02;9.45;;;8.55;;
9745;SDS011;4912;50.836;12.958;2023-08-17T12:24:33;8.93;;;8.07;;
9745;SDS011;4912;50.836;12.958;2023-08-17T12:27:04;10.63;;;8.35;;
9745;SDS011;4912;50.836;12.958;2023-08-17T12:29:45;9.65;;;8.05;;
9745;SDS011;4912;50.836;12.958;2023-08-17T12:32:17;9.15;;;8.25;;
9745;SDS011;4912;50.836;12.958;2023-08-17T12:34:52;10.38;;;8.07;;
9745;SDS011;4912;50.836;12.958;2023-08-17T12:37:26;9.77;;;8.77;;
9745;SDS011;4912;50.836;12.958;2023-08-17T12:39:57;10.13;;;8.57;;
9745;SDS011;4912;50.836;12.958;2023-08-17T12:42:28;9.52;;;8.20;;
9745;SDS011;4912;50.836;12.958;2023-08-17T12:44:59;10.02;;;8.80;;
9745;SDS011;4912;50.836;12.958;2023-08-17T12:47:31;9.57;;;8.57;;
9745;SDS011;4912;50.836;12.958;2023-08-17T12:50:05;12.48;;;8.55;;
9745;SDS011;4912;50.836;12.958;2023-08-17T12:52:36;9.23;;;6.85;;
9745;SDS011;4912;50.836;12.958;2023-08-17T12:55:13;9.05;;;6.43;;
9745;SDS011;4912;50.836;12.958;2023-08-17T12:57:44;7.22;;;5.50;;
9745;SDS011;4912;50.836;12.958;2023-08-17T13:00:15;7.28;;;5.47;;
9745;SDS011;4912;50.836;12.958;2023-08-17T13:02:46;7.93;;;5.72;;
9745;SDS011;4912;50.836;12.958;2023-08-17T13:05:21;8.85;;;6.82;;
9745;SDS011;4912;50.836;12.958;2023-08-17T13:07:51;6.75;;;5.60;;
9745;SDS011;4912;50.836;12.958;2023-08-17T13:10:22;7.55;;;4.75;;
9745;SDS011;4912;50.836;12.958;2023-08-17T13:12:53;6.10;;;4.28;;
9745;SDS011;4912;50.836;12.958;2023-08-17T13:15:26;6.25;;;4.50;;
9745;SDS011;4912;50.836;12.958;2023-08-17T13:17:57;8.05;;;4.68;;
9745;SDS011;4912;50.836;12.958;2023-08-17T13:20:30;5.90;;;3.80;;
9745;SDS011;4912;50.836;12.958;2023-08-17T13:23:01;9.68;;;3.95;;
9745;SDS011;4912;50.836;12.958;2023-08-17T13:25:32;6.95;;;4.50;;
9745;SDS011;4912;50.836;12.958;2023-08-17T13:28:03;7.00;;;4.55;;
9745;SDS011;4912;50.836;12.958;2023-08-17T13:30:34;6.53;;;4.70;;
9745;SDS011;4912;50.836;12.958;2023-08-17T13:33:05;6.55;;;4.60;;
9745;SDS011;4912;50.836;12.958;2023-08-17T13:35:39;7.30;;;5.20;;
9745;SDS011;4912;50.836;12.958;2023-08-17T13:38:09;9.40;;;5.40;;
9745;SDS011;4912;50.836;12.958;2023-08-17T13:40:40;12.40;;;10.98;;
9745;SDS011;4912;50.836;12.958;2023-08-17T13:43:10;19.60;;;15.50;;
9745;SDS011;4912;50.836;12.958;2023-08-17T13:45:41;11.25;;;10.05;;
9745;SDS011;4912;50.836;12.958;2023-08-17T13:48:12;7.45;;;5.75;;
9745;SDS011;4912;50.836;12.958;2023-08-17T13:50:45;6.43;;;4.90;;
9745;SDS011;4912;50.836;12.958;2023-08-17T13:53:16;10.07;;;4.90;;
9745;SDS011;4912;50.836;12.958;2023-08-17T13:55:47;7.90;;;4.80;;
9745;SDS011;4912;50.836;12.958;2023-08-17T13:58:18;5.68;;;5.00;;
9745;SDS011;4912;50.836;12.958;2023-08-17T14:00:49;8.38;;;5.70;;
9745;SDS011;4912;50.836;12.958;2023-08-17T14:03:20;7.53;;;5.35;;
9745;SDS011;4912;50.836;12.958;2023-08-17T14:05:54;9.35;;;6.65;;
9745;SDS011;4912;50.836;12.958;2023-08-17T14:08:25;12.68;;;7.70;;
9745;SDS011;4912;50.836;12.958;2023-08-17T14:10:56;14.00;;;7.35;;
9745;SDS011;4912;50.836;12.958;2023-08-17T14:13:27;11.82;;;6.00;;
9745;SDS011;4912;50.836;12.958;2023-08-17T14:15:57;6.90;;;5.10;;
9745;SDS011;4912;50.836;12.958;2023-08-17T14:18:28;9.43;;;5.65;;
9745;SDS011;4912;50.836;12.958;2023-08-17T14:21:01;20.30;;;8.60;;
9745;SDS011;4912;50.836;12.958;2023-08-17T14:23:32;18.13;;;7.93;;
9745;SDS011;4912;50.836;12.958;2023-08-17T14:26:03;14.57;;;6.45;;
9745;SDS011;4912;50.836;12.958;2023-08-17T14:28:33;9.95;;;6.90;;
9745;SDS011;4912;50.836;12.958;2023-08-17T14:31:10;11.60;;;6.60;;
9745;SDS011;4912;50.836;12.958;2023-08-17T14:33:44;9.45;;;5.90;;
9745;SDS011;4912;50.836;12.958;2023-08-17T14:36:18;16.75;;;8.00;;
9745;SDS011;4912;50.836;12.958;2023-08-17T14:38:49;17.85;;;7.45;;
9745;SDS011;4912;50.836;12.958;2023-08-17T14:41:20;15.57;;;7.00;;
9745;SDS011;4912;50.836;12.958;2023-08-17T14:43:58;16.73;;;6.80;;
9745;SDS011;4912;50.836;12.958;2023-08-17T14:46:29;14.07;;;7.00;;
9745;SDS011;4912;50.836;12.958;2023-08-17T14:49:01;11.30;;;5.78;;
9745;SDS011;4912;50.836;12.958;2023-08-17T14:51:39;6.22;;;4.93;;
9745;SDS011;4912;50.836;12.958;2023-08-17T14:54:10;6.60;;;4.63;;
9745;SDS011;4912;50.836;12.958;2023-08-17T14:56:41;7.70;;;4.10;;
9745;SDS011;4912;50.836;12.958;2023-08-17T14:59:12;5.93;;;4.60;;
9745;SDS011;4912;50.836;12.958;2023-08-17T15:01:42;5.70;;;4.20;;
9745;SDS011;4912;50.836;12.958;2023-08-17T15:04:14;6.28;;;4.55;;
9745;SDS011;4912;50.836;12.958;2023-08-17T15:06:47;7.07;;;5.15;;
9745;SDS011;4912;50.836;12.958;2023-08-17T15:09:17;5.63;;;4.88;;
9745;SDS011;4912;50.836;12.958;2023-08-17T15:11:48;8.57;;;4.85;;
9745;SDS011;4912;50.836;12.958;2023-08-17T15:14:19;6.07;;;4.63;;
9745;SDS011;4912;50.836;12.958;2023-08-17T15:16:50;6.60;;;4.70;;
9745;SDS011;4912;50.836;12.958;2023-08-17T15:19:21;9.10;;;4.97;;
9745;SDS011;4912;50.836;12.958;2023-08-17T15:22:08;6.95;;;4.97;;
9745;SDS011;4912;50.836;12.958;2023-08-17T15:24:41;7.15;;;4.93;;
9745;SDS011;4912;50.836;12.958;2023-08-17T15:27:13;8.98;;;5.43;;
9745;SDS011;4912;50.836;12.958;2023-08-17T15:29:43;6.43;;;5.10;;
9745;SDS011;4912;50.836;12.958;2023-08-17T15:32:14;6.53;;;5.30;;
9745;SDS011;4912;50.836;12.958;2023-08-17T15:34:45;9.40;;;5.43;;
9745;SDS011;4912;50.836;12.958;2023-08-17T15:37:18;5.88;;;4.85;;
9745;SDS011;4912;50.836;12.958;2023-08-17T15:39:49;10.07;;;4.80;;
9745;SDS011;4912;50.836;12.958;2023-08-17T15:42:20;7.70;;;5.63;;
9745;SDS011;4912;50.836;12.958;2023-08-17T15:44:51;9.00;;;5.57;;
9745;SDS011;4912;50.836;12.958;2023-08-17T15:47:22;7.70;;;5.53;;
9745;SDS011;4912;50.836;12.958;2023-08-17T15:49:53;9.32;;;5.75;;
9745;SDS011;4912;50.836;12.958;2023-08-17T15:52:26;8.50;;;6.20;;
9745;SDS011;4912;50.836;12.958;2023-08-17T15:54:57;10.25;;;5.70;;
9745;SDS011;4912;50.836;12.958;2023-08-17T15:57:27;11.95;;;5.93;;
9745;SDS011;4912;50.836;12.958;2023-08-17T15:59:58;13.98;;;5.95;;
9745;SDS011;4912;50.836;12.958;2023-08-17T16:02:34;13.57;;;7.03;;
9745;SDS011;4912;50.836;12.958;2023-08-17T16:05:05;8.13;;;6.55;;
9745;SDS011;4912;50.836;12.958;2023-08-17T16:07:39;9.27;;;6.10;;
9745;SDS011;4912;50.836;12.958;2023-08-17T16:10:09;12.32;;;7.70;;
9745;SDS011;4912;50.836;12.958;2023-08-17T16:12:40;10.82;;;6.97;;
9745;SDS011;4912;50.836;12.958;2023-08-17T16:15:11;10.23;;;6.28;;
9745;SDS011;4912;50.836;12.958;2023-08-17T16:17:41;7.88;;;5.82;;
9745;SDS011;4912;50.836;12.958;2023-08-17T16:20:12;9.02;;;6.57;;
9745;SDS011;4912;50.836;12.958;2023-08-17T16:22:46;8.18;;;5.82;;
9745;SDS011;4912;50.836;12.958;2023-08-17T16:25:19;7.03;;;6.13;;
9745;SDS011;4912;50.836;12.958;2023-08-17T16:27:56;9.15;;;6.13;;
9745;SDS011;4912;50.836;12.958;2023-08-17T16:30:26;9.43;;;5.90;;
9745;SDS011;4912;50.836;12.958;2023-08-17T16:32:57;10.43;;;6.63;;